createdAt,value
2018-12-15T00:01:38.535Z,102281.03
2018-12-15T00:04:11.040Z,102276.63
2018-12-15T00:06:59.404Z,102271.73
2018-12-15T00:09:29.967Z,102273.05
2018-12-15T00:12:00.478Z,102265.95
2018-12-15T00:14:31.101Z,102265.27
2018-12-15T00:17:05.673Z,102271.88
2018-12-15T00:19:34.315Z,102267.09
2018-12-15T00:22:04.853Z,102263.98
2018-12-15T00:24:35.349Z,102271.46
2018-12-15T00:27:07.018Z,102270.05
2018-12-15T00:29:37.501Z,102268.88
2018-12-15T00:32:07.994Z,102275.38
2018-12-15T00:34:38.511Z,102275.09
2018-12-15T00:37:08.997Z,102273.30
2018-12-15T00:39:39.885Z,102278.56
2018-12-15T00:42:10.429Z,102275.10
2018-12-15T00:44:40.905Z,102273.39
2018-12-15T00:47:13.868Z,102279.73
2018-12-15T00:49:44.247Z,102275.35
2018-12-15T00:52:15.842Z,102282.33
2018-12-15T00:54:46.320Z,102287.71
2018-12-15T00:57:16.860Z,102288.28
2018-12-15T00:59:47.449Z,102293.67
2018-12-15T01:02:18.538Z,102294.33
2018-12-15T01:04:49.131Z,102295.73
2018-12-15T01:07:19.672Z,102294.59
2018-12-15T01:09:50.126Z,102287.75
2018-12-15T01:12:20.727Z,102295.23
2018-12-15T01:14:51.226Z,102294.97
2018-12-15T01:17:21.693Z,102289.81
2018-12-15T01:19:52.375Z,102292.92
2018-12-15T01:22:22.885Z,102287.52
2018-12-15T01:24:54.578Z,102290.48
2018-12-15T01:27:25.203Z,102287.23
2018-12-15T01:29:55.749Z,102291.13
2018-12-15T01:32:26.404Z,102292.16
2018-12-15T01:34:56.938Z,102291.52
2018-12-15T01:37:27.449Z,102294.63
2018-12-15T01:39:57.937Z,102289.58
2018-12-15T01:42:28.453Z,102291.10
2018-12-15T01:44:59.070Z,102291.66
2018-12-15T01:47:29.657Z,102289.57
2018-12-15T01:50:00.194Z,102287.75
2018-12-15T01:52:30.899Z,102292.66
2018-12-15T01:55:01.418Z,102293.19
2018-12-15T01:57:32.049Z,102288.89
2018-12-15T02:00:02.555Z,102291.40
2018-12-15T02:02:35.449Z,102293.56
2018-12-15T02:05:06.233Z,102293.83
2018-12-15T02:07:36.705Z,102293.83
2018-12-15T02:10:08.018Z,102294.70
2018-12-15T02:12:38.956Z,102295.77
2018-12-15T02:15:09.472Z,102293.30
2018-12-15T02:17:39.969Z,102293.80
2018-12-15T02:20:10.590Z,102283.34
2018-12-15T02:22:41.205Z,102295.23
2018-12-15T02:25:11.769Z,102289.27
2018-12-15T02:27:42.255Z,102288.13
2018-12-15T02:30:12.760Z,102275.87
2018-12-15T02:32:43.410Z,102281.95
2018-12-15T02:35:13.861Z,102275.33
2018-12-15T02:37:44.353Z,102270.70
2018-12-15T02:40:14.827Z,102271.23
2018-12-15T02:42:45.326Z,102270.81
2018-12-15T02:45:15.856Z,102277.42
2018-12-15T02:47:46.297Z,102272.75
2018-12-15T02:50:16.794Z,102275.06
2018-12-15T02:52:47.268Z,102275.06
2018-12-15T02:55:17.734Z,102269.52
2018-12-15T02:57:48.227Z,102274.58
2018-12-15T03:00:18.721Z,102268.77
2018-12-15T03:02:49.222Z,102269.41
2018-12-15T03:05:19.817Z,102269.94
2018-12-15T03:07:50.290Z,102267.09
2018-12-15T03:10:20.772Z,102272.64
2018-12-15T03:12:51.268Z,102271.48
2018-12-15T03:15:21.791Z,102270.84
2018-12-15T03:17:52.264Z,102267.63
2018-12-15T03:20:22.825Z,102268.90
2018-12-15T03:22:53.289Z,102270.45
2018-12-15T03:25:23.764Z,102273.28
2018-12-15T03:27:54.210Z,102268.64
2018-12-15T03:30:24.692Z,102269.16
2018-12-15T03:32:55.278Z,102272.66
2018-12-15T03:35:25.751Z,102272.91
2018-12-15T03:37:56.241Z,102279.73
2018-12-15T03:40:26.698Z,102269.94
2018-12-15T03:42:57.192Z,102269.67
2018-12-15T03:45:29.714Z,102279.77
2018-12-15T03:48:00.252Z,102273.42
2018-12-15T03:50:30.749Z,102276.12
2018-12-15T03:53:01.194Z,102272.78
2018-12-15T03:55:31.670Z,102271.75
2018-12-15T03:58:02.206Z,102273.30
2018-12-15T04:00:32.690Z,102275.89
2018-12-15T04:03:03.318Z,102276.13
2018-12-15T04:05:33.814Z,102274.08
2018-12-15T04:08:04.424Z,102282.09
2018-12-15T04:10:35.178Z,102275.62
2018-12-15T04:13:05.680Z,102277.95
2018-12-15T04:15:36.311Z,102288.02
2018-12-15T04:18:06.843Z,102285.96
2018-12-15T04:20:37.302Z,102281.84
2018-12-15T04:23:07.867Z,102286.23
2018-12-15T04:25:38.965Z,102286.20
2018-12-15T04:28:09.486Z,102291.63
2018-12-15T04:30:39.947Z,102278.20
2018-12-15T04:33:10.444Z,102291.89
2018-12-15T04:35:40.925Z,102287.77
2018-12-15T04:38:11.477Z,102291.89
2018-12-15T04:40:42.114Z,102292.55
2018-12-15T04:43:12.559Z,102292.42
2018-12-15T04:45:43.043Z,102283.64
2018-12-15T04:48:13.537Z,102289.69
2018-12-15T04:50:44.005Z,102284.28
2018-12-15T04:53:14.471Z,102289.31
2018-12-15T04:55:45.035Z,102284.55
2018-12-15T04:58:15.537Z,102286.23
2018-12-15T05:00:46.135Z,102289.08
2018-12-15T05:03:16.586Z,102289.58
2018-12-15T05:05:47.158Z,102286.46
2018-12-15T05:08:17.710Z,102286.22
2018-12-15T05:10:48.193Z,102285.20
2018-12-15T05:13:18.697Z,102280.79
2018-12-15T05:15:49.137Z,102277.03
2018-12-15T05:18:19.657Z,102275.88
2018-12-15T05:20:50.158Z,102273.30
2018-12-15T05:23:20.610Z,102273.30
2018-12-15T05:25:51.086Z,102280.53
2018-12-15T05:28:21.674Z,102278.98
2018-12-15T05:30:52.143Z,102278.20
2018-12-15T05:33:22.635Z,102278.98
2018-12-15T05:35:53.127Z,102281.68
2018-12-15T05:38:23.735Z,102280.65
2018-12-15T05:40:54.183Z,102281.84
2018-12-15T05:43:24.646Z,102272.78
2018-12-15T05:45:55.102Z,102271.09
2018-12-15T05:48:25.620Z,102274.19
2018-12-15T05:50:56.215Z,102272.27
2018-12-15T05:53:26.750Z,102277.81
2018-12-15T05:55:57.298Z,102276.91
2018-12-15T05:58:27.834Z,102274.34
2018-12-15T06:00:58.321Z,102283.75
2018-12-15T06:03:28.812Z,102286.23
2018-12-15T06:05:59.282Z,102294.47
2018-12-15T06:08:29.809Z,102289.83
2018-12-15T06:11:00.434Z,102293.83
2018-12-15T06:13:30.996Z,102290.61
2018-12-15T06:16:01.745Z,102288.78
2018-12-15T06:18:32.328Z,102299.91
2018-12-15T06:21:02.815Z,102297.73
2018-12-15T06:23:33.457Z,102299.91
2018-12-15T06:26:04.289Z,102302.23
2018-12-15T06:28:34.990Z,102302.23
2018-12-15T06:31:05.554Z,102311.50
2018-12-15T06:33:36.213Z,102307.92
2018-12-15T06:36:06.860Z,102309.72
2018-12-15T06:38:37.575Z,102308.69
2018-12-15T06:41:08.297Z,102312.56
2018-12-15T06:43:39.209Z,102312.06
2018-12-15T06:46:09.926Z,102314.88
2018-12-15T06:48:40.451Z,102321.61
2018-12-15T06:51:11.086Z,102318.26
2018-12-15T06:53:41.584Z,102324.72
2018-12-15T06:56:12.106Z,102323.16
2018-12-15T06:58:42.739Z,102327.56
2018-12-15T07:01:13.263Z,102333.01
2018-12-15T07:03:43.763Z,102335.32
2018-12-15T07:06:14.447Z,102334.82
2018-12-15T07:08:44.978Z,102337.14
2018-12-15T07:11:15.506Z,102335.59
2018-12-15T07:13:45.999Z,102337.52
2018-12-15T07:16:16.618Z,102341.79
2018-12-15T07:18:47.105Z,102337.27
2018-12-15T07:21:17.691Z,102338.94
2018-12-15T07:23:48.198Z,102338.18
2018-12-15T07:26:19.548Z,102342.56
2018-12-15T07:28:50.051Z,102339.21
2018-12-15T07:31:20.577Z,102342.07
2018-12-15T07:33:51.038Z,102334.69
2018-12-15T07:36:22.586Z,102334.04
2018-12-15T07:38:53.111Z,102335.83
2018-12-15T07:41:23.670Z,102337.12
2018-12-15T07:43:54.351Z,102335.83
2018-12-15T07:46:24.862Z,102334.70
2018-12-15T07:48:55.496Z,102330.43
2018-12-15T07:51:26.080Z,102337.92
2018-12-15T07:53:56.629Z,102336.11
2018-12-15T07:56:27.533Z,102337.39
2018-12-15T07:58:58.090Z,102337.14
2018-12-15T08:01:28.635Z,102343.60
2018-12-15T08:03:59.186Z,102342.05
2018-12-15T08:06:29.737Z,102342.70
2018-12-15T08:09:01.074Z,102343.86
2018-12-15T08:11:38.858Z,102342.95
2018-12-15T08:16:54.278Z,102342.68
2018-12-15T08:19:24.958Z,102345.41
2018-12-15T08:21:55.675Z,102349.16
2018-12-15T08:24:26.271Z,102346.31
2018-12-15T08:26:56.987Z,102343.22
2018-12-15T08:29:30.899Z,102343.98
2018-12-15T08:32:01.514Z,102347.34
2018-12-15T08:34:32.079Z,102347.63
2018-12-15T08:37:02.723Z,102344.87
2018-12-15T08:39:33.907Z,102351.48
2018-12-15T08:42:04.840Z,102348.25
2018-12-15T08:44:36.782Z,102350.20
2018-12-15T08:47:07.561Z,102348.76
2018-12-15T08:49:38.292Z,102355.75
2018-12-15T08:52:10.211Z,102356.11
2018-12-15T08:54:41.393Z,102351.86
2018-12-15T09:00:19.497Z,102350.98
2018-12-15T09:02:52.681Z,102350.80
2018-12-15T09:05:25.176Z,102352.13
2018-12-15T09:08:04.560Z,102355.09
2018-12-15T09:10:36.274Z,102353.41
2018-12-15T09:13:07.863Z,102350.27
2018-12-15T09:15:40.295Z,102356.27
2018-12-15T09:18:12.910Z,102353.16
2018-12-15T09:20:58.762Z,102347.97
2018-12-15T09:23:32.428Z,102346.92
2018-12-15T09:26:06.998Z,102347.43
2018-12-15T09:28:44.235Z,102342.00
2018-12-15T09:31:23.207Z,102346.68
2018-12-15T09:33:59.848Z,102345.13
2018-12-15T09:36:43.693Z,102342.22
2018-12-15T09:39:14.430Z,102342.47
2018-12-15T09:41:46.404Z,102334.48
2018-12-15T09:44:39.088Z,102335.03
2018-12-15T09:47:38.603Z,102330.48
2018-12-15T09:50:39.113Z,102327.41
2018-12-15T09:53:14.627Z,102323.16
2018-12-15T09:55:45.319Z,102321.30
2018-12-15T09:58:19.113Z,102326.05
2018-12-15T10:00:56.260Z,102319.98
2018-12-15T10:03:27.191Z,102324.43
2018-12-15T10:05:57.966Z,102318.08
2018-12-15T10:08:28.739Z,102325.16
2018-12-15T10:10:59.703Z,102320.15
2018-12-15T10:13:31.526Z,102320.17
2018-12-15T10:16:02.600Z,102311.80
2018-12-15T10:18:34.251Z,102324.59
2018-12-15T10:21:04.779Z,102316.59
2018-12-15T10:23:35.287Z,102314.26
2018-12-15T10:26:05.934Z,102318.26
2018-12-15T10:28:36.693Z,102320.78
2018-12-15T10:31:12.591Z,102310.03
2018-12-15T10:33:43.394Z,102316.30
2018-12-15T10:36:14.291Z,102312.47
2018-12-15T10:38:44.935Z,102307.50
2018-12-15T10:41:15.572Z,102297.64
2018-12-15T10:43:46.440Z,102297.18
2018-12-15T10:46:17.184Z,102299.48
2018-12-15T10:48:49.758Z,102290.98
2018-12-15T10:51:20.798Z,102295.57
2018-12-15T10:53:51.660Z,102288.08
2018-12-15T10:56:22.435Z,102287.92
2018-12-15T10:58:53.769Z,102285.53
2018-12-15T11:01:26.470Z,102284.69
2018-12-15T11:04:00.788Z,102282.95
2018-12-15T11:06:30.080Z,102276.27
2018-12-15T11:09:00.770Z,102269.08
2018-12-15T11:11:33.730Z,102274.17
2018-12-15T11:14:04.738Z,102266.34
2018-12-15T11:16:35.420Z,102263.34
2018-12-15T11:19:06.319Z,102266.56
2018-12-15T11:21:37.866Z,102256.78
2018-12-15T11:24:08.611Z,102253.84
2018-12-15T11:26:39.226Z,102265.69
2018-12-15T11:29:09.722Z,102259.05
2018-12-15T11:31:40.397Z,102263.73
2018-12-15T11:34:11.209Z,102257.73
2018-12-15T11:36:42.044Z,102258.42
2018-12-15T11:39:12.684Z,102253.67
2018-12-15T11:41:43.332Z,102247.92
2018-12-15T11:44:13.949Z,102247.83
2018-12-15T11:46:44.623Z,102241.39
2018-12-15T11:49:16.493Z,102239.95
2018-12-15T11:51:47.182Z,102239.50
2018-12-15T11:54:17.922Z,102239.21
2018-12-15T11:56:48.477Z,102238.55
2018-12-15T11:59:19.165Z,102237.50
2018-12-15T12:01:50.750Z,102228.69
2018-12-15T12:04:21.386Z,102231.62
2018-12-15T12:06:51.903Z,102233.90
2018-12-15T12:09:22.431Z,102233.66
2018-12-15T12:11:53.033Z,102231.09
2018-12-15T12:14:23.620Z,102228.44
2018-12-15T12:16:54.289Z,102223.95
2018-12-15T12:19:25.175Z,102229.28
2018-12-15T12:21:57.366Z,102227.59
2018-12-15T12:24:28.085Z,102228.57
2018-12-15T12:27:00.753Z,102220.88
2018-12-15T12:29:31.389Z,102228.61
2018-12-15T12:32:02.924Z,102223.22
2018-12-15T12:34:33.680Z,102220.35
2018-12-15T12:37:04.231Z,102218.36
2018-12-15T12:39:35.093Z,102213.84
2018-12-15T12:42:05.917Z,102215.25
2018-12-15T12:44:36.787Z,102211.61
2018-12-15T12:47:07.471Z,102212.13
2018-12-15T12:49:38.231Z,102220.35
2018-12-15T12:52:10.051Z,102220.74
2018-12-15T12:54:40.647Z,102215.45
2018-12-15T12:57:13.967Z,102217.63
2018-12-15T12:59:44.845Z,102218.55
2018-12-15T13:02:16.119Z,102208.94
2018-12-15T13:04:47.505Z,102218.05
2018-12-15T13:07:18.104Z,102211.53
2018-12-15T13:09:48.633Z,102219.42
2018-12-15T13:12:19.209Z,102217.78
2018-12-15T13:14:49.790Z,102209.81
2018-12-15T13:17:20.392Z,102220.88
2018-12-15T13:19:50.951Z,102218.27
2018-12-15T13:22:21.572Z,102221.82
2018-12-15T13:24:52.288Z,102217.94
2018-12-15T13:27:23.032Z,102221.93
2018-12-15T13:29:53.684Z,102219.20
2018-12-15T13:32:24.315Z,102217.58
2018-12-15T13:34:55.042Z,102220.52
2018-12-15T13:37:25.923Z,102226.93
2018-12-15T13:39:56.672Z,102223.95
2018-12-15T13:42:27.398Z,102215.43
2018-12-15T13:44:58.222Z,102215.34
2018-12-15T13:47:29.913Z,102212.70
2018-12-15T13:50:00.926Z,102216.14
2018-12-15T13:52:32.262Z,102218.28
2018-12-15T13:55:02.889Z,102220.63
2018-12-15T13:57:33.613Z,102220.03
2018-12-15T14:00:04.305Z,102221.84
2018-12-15T14:02:36.101Z,102225.05
2018-12-15T14:05:06.814Z,102224.27
2018-12-15T14:07:37.471Z,102225.99
2018-12-15T14:10:08.264Z,102222.53
2018-12-15T14:12:40.113Z,102219.12
2018-12-15T14:15:10.986Z,102219.38
2018-12-15T14:17:43.819Z,102221.38
2018-12-15T14:20:16.975Z,102222.30
2018-12-15T14:22:47.628Z,102220.03
2018-12-15T14:25:23.741Z,102218.35
2018-12-15T14:27:56.748Z,102215.24
2018-12-15T14:30:30.036Z,102217.27
2018-12-15T14:33:00.881Z,102215.27
2018-12-15T14:35:31.951Z,102217.97
2018-12-15T14:38:09.564Z,102216.00
2018-12-15T14:40:40.473Z,102221.56
2018-12-15T14:43:11.105Z,102216.71
2018-12-15T14:45:57.493Z,102213.02
2018-12-15T14:48:28.358Z,102212.40
2018-12-15T14:50:58.964Z,102214.30
2018-12-15T14:53:29.649Z,102211.16
2018-12-15T14:56:00.231Z,102216.47
2018-12-15T14:58:30.833Z,102209.61
2018-12-15T15:01:01.495Z,102209.41
2018-12-15T15:03:33.635Z,102209.16
2018-12-15T15:06:04.411Z,102208.81
2018-12-15T15:08:35.142Z,102204.71
2018-12-15T15:11:05.692Z,102203.88
2018-12-15T15:13:36.266Z,102204.89
2018-12-15T15:16:06.839Z,102201.05
2018-12-15T15:18:37.544Z,102199.02
2018-12-15T15:21:08.106Z,102198.80
2018-12-15T15:23:38.659Z,102200.38
2018-12-15T15:26:09.177Z,102195.80
2018-12-15T15:28:39.707Z,102192.91
2018-12-15T15:31:10.284Z,102185.44
2018-12-15T15:33:41.186Z,102191.39
2018-12-15T15:36:11.944Z,102191.34
2018-12-15T15:38:42.726Z,102189.29
2018-12-15T15:41:13.332Z,102187.40
2018-12-15T15:43:44.046Z,102187.67
2018-12-15T15:46:14.733Z,102185.58
2018-12-15T15:48:45.400Z,102187.44
2018-12-15T15:51:16.029Z,102182.25
2018-12-15T15:53:46.585Z,102175.53
2018-12-15T15:56:17.261Z,102175.57
2018-12-15T15:58:47.819Z,102171.50
2018-12-15T16:01:18.515Z,102173.64
2018-12-15T16:03:49.178Z,102174.20
2018-12-15T16:06:20.242Z,102175.53
2018-12-15T16:08:50.820Z,102172.95
2018-12-15T16:11:21.454Z,102176.37
2018-12-15T16:13:58.176Z,102173.89
2018-12-15T16:16:34.831Z,102173.89
2018-12-15T16:19:05.483Z,102180.62
2018-12-15T16:21:36.201Z,102179.84
2018-12-15T16:24:06.809Z,102180.69
2018-12-15T16:26:45.209Z,102179.45
2018-12-15T16:29:22.935Z,102178.05
2018-12-15T16:31:53.520Z,102180.77
2018-12-15T16:34:24.416Z,102178.34
2018-12-15T16:36:55.332Z,102174.44
2018-12-15T16:39:31.293Z,102170.89
2018-12-15T16:42:02.490Z,102176.08
2018-12-15T16:44:38.531Z,102173.20
2018-12-15T16:47:13.319Z,102170.95
2018-12-15T16:49:44.089Z,102171.02
2018-12-15T16:52:18.076Z,102173.66
2018-12-15T16:54:50.712Z,102168.13
2018-12-15T16:57:24.566Z,102165.11
2018-12-15T16:59:56.674Z,102170.48
2018-12-15T17:02:27.305Z,102169.89
2018-12-15T17:04:58.167Z,102162.07
2018-12-15T17:07:28.962Z,102158.73
2018-12-15T17:10:01.335Z,102166.20
2018-12-15T17:12:32.959Z,102168.53
2018-12-15T17:15:06.551Z,102169.88
2018-12-15T17:17:37.473Z,102164.55
2018-12-15T17:20:09.784Z,102164.68
2018-12-15T17:22:41.995Z,102160.84
2018-12-15T17:25:13.778Z,102154.19
2018-12-15T17:27:46.153Z,102158.52
2018-12-15T17:30:21.696Z,102157.11
2018-12-15T17:32:54.275Z,102161.12
2018-12-15T17:35:33.823Z,102156.24
2018-12-15T17:38:05.909Z,102154.48
2018-12-15T17:40:36.789Z,102156.72
2018-12-15T17:43:07.492Z,102152.45
2018-12-15T17:45:40.167Z,102153.23
2018-12-15T17:48:11.940Z,102153.89
2018-12-15T17:50:42.847Z,102152.86
2018-12-15T17:53:13.683Z,102143.17
2018-12-15T17:55:44.483Z,102141.22
2018-12-15T17:58:15.262Z,102139.89
2018-12-15T18:00:45.974Z,102125.59
2018-12-15T18:03:16.629Z,102124.91
2018-12-15T18:05:47.389Z,102123.56
2018-12-15T18:08:18.058Z,102129.67
2018-12-15T18:10:48.852Z,102125.59
2018-12-15T18:13:19.472Z,102127.36
2018-12-15T18:15:50.141Z,102134.51
2018-12-15T18:18:21.235Z,102139.77
2018-12-15T18:20:51.840Z,102136.38
2018-12-15T18:23:23.630Z,102136.61
2018-12-15T18:25:54.400Z,102139.21
2018-12-15T18:28:25.239Z,102130.27
2018-12-15T18:30:56.111Z,102131.73
2018-12-15T18:33:27.202Z,102130.92
2018-12-15T18:35:58.604Z,102127.57
2018-12-15T18:38:30.466Z,102129.63
2018-12-15T18:41:02.529Z,102125.47
2018-12-15T18:43:33.183Z,102130.12
2018-12-15T18:46:05.265Z,102126.25
2018-12-15T18:48:38.049Z,102122.28
2018-12-15T18:51:08.662Z,102130.16
2018-12-15T18:53:40.207Z,102117.98
2018-12-15T18:56:10.871Z,102123.55
2018-12-15T18:58:44.527Z,102118.13
2018-12-15T19:01:16.113Z,102113.59
2018-12-15T19:03:46.880Z,102115.78
2018-12-15T19:06:20.155Z,102109.17
2018-12-15T19:08:54.054Z,102109.08
2018-12-15T19:11:26.735Z,102106.78
2018-12-15T19:13:57.275Z,102108.43
2018-12-15T19:16:27.857Z,102104.97
2018-12-15T19:18:58.832Z,102106.36
2018-12-15T19:21:29.751Z,102104.32
2018-12-15T19:24:01.134Z,102108.94
2018-12-15T19:26:33.982Z,102110.62
2018-12-15T19:29:05.443Z,102103.72
2018-12-15T19:31:36.189Z,102104.48
2018-12-15T19:34:06.922Z,102100.07
2018-12-15T19:36:37.725Z,102098.28
2018-12-15T19:39:14.802Z,102094.80
2018-12-15T19:41:45.955Z,102085.95
2018-12-15T19:44:18.461Z,102091.06
2018-12-15T19:47:05.504Z,102092.36
2018-12-15T19:49:45.352Z,102091.72
2018-12-15T19:52:18.828Z,102087.30
2018-12-15T19:54:51.367Z,102085.41
2018-12-15T19:57:22.322Z,102076.89
2018-12-15T19:59:53.164Z,102072.99
2018-12-15T20:02:24.335Z,102076.05
2018-12-15T20:04:55.097Z,102070.43
2018-12-15T20:07:26.041Z,102066.85
2018-12-15T20:26:31.106Z,102047.59
2018-12-15T20:29:05.262Z,102044.70
2018-12-15T20:31:36.529Z,102050.70
2018-12-15T20:34:07.038Z,102039.01
2018-12-15T20:36:47.503Z,102027.34
2018-12-15T20:39:23.477Z,102034.91
2018-12-15T20:42:00.850Z,102025.03
2018-12-15T20:44:31.698Z,102023.94
2018-12-15T20:47:05.247Z,102026.22
2018-12-15T20:49:43.902Z,102022.81
2018-12-15T20:52:14.547Z,102020.98
2018-12-15T20:54:45.159Z,102020.73
2018-12-15T20:57:18.559Z,102027.64
2018-12-15T20:59:51.007Z,102009.00
2018-12-15T21:02:27.397Z,102007.84
2018-12-15T21:05:06.628Z,102003.74
2018-12-15T21:07:37.869Z,102010.28
2018-12-15T21:10:08.891Z,102005.19
2018-12-15T21:12:39.945Z,102000.31
2018-12-15T21:15:19.754Z,101996.73
2018-12-15T21:18:16.148Z,101993.63
2018-12-15T21:20:54.926Z,101988.20
2018-12-15T21:23:28.397Z,101995.19
2018-12-15T21:25:59.872Z,101990.16
2018-12-15T21:28:31.532Z,101976.22
2018-12-15T21:31:02.106Z,101977.09
2018-12-15T21:33:33.920Z,101979.22
2018-12-15T21:36:04.600Z,101970.41
2018-12-15T21:38:35.297Z,101975.33
2018-12-15T21:41:05.890Z,101973.00
2018-12-15T21:43:36.586Z,101969.13
2018-12-15T21:46:07.214Z,101964.12
2018-12-15T21:48:37.807Z,101959.37
2018-12-15T21:51:08.553Z,101961.83
2018-12-15T21:53:39.110Z,101952.66
2018-12-15T21:56:10.571Z,101958.34
2018-12-15T21:58:41.249Z,101959.75
2018-12-15T22:01:11.850Z,101950.57
2018-12-15T22:03:42.550Z,101950.61
2018-12-15T22:06:13.307Z,101951.63
2018-12-15T22:08:45.444Z,101950.36
2018-12-15T22:11:16.110Z,101949.05
2018-12-15T22:13:46.796Z,101946.61
2018-12-15T22:16:17.403Z,101943.65
2018-12-15T22:18:47.972Z,101943.77
2018-12-15T22:21:19.012Z,101940.70
2018-12-15T22:23:49.612Z,101931.14
2018-12-15T22:26:20.216Z,101934.89
2018-12-15T22:28:50.796Z,101925.70
2018-12-15T22:31:21.392Z,101922.69
2018-12-15T22:33:52.019Z,101924.52
2018-12-15T22:36:22.759Z,101925.04
2018-12-15T22:38:53.448Z,101923.88
2018-12-15T22:41:24.104Z,101915.26
2018-12-15T22:43:54.813Z,101911.42
2018-12-15T22:46:25.577Z,101909.23
2018-12-15T22:48:56.177Z,101908.21
2018-12-15T22:51:26.866Z,101898.53
2018-12-15T22:53:57.538Z,101889.74
2018-12-15T22:56:28.084Z,101893.74
2018-12-15T22:58:58.751Z,101887.70
2018-12-15T23:01:31.588Z,101886.03
2018-12-15T23:04:04.709Z,101887.20
2018-12-15T23:06:35.337Z,101887.93
2018-12-15T23:09:08.195Z,101884.03
2018-12-15T23:11:40.926Z,101884.47
2018-12-15T23:14:11.510Z,101879.52
2018-12-15T23:20:46.883Z,101868.58
2018-12-15T23:23:17.449Z,101869.62
2018-12-15T23:25:48.048Z,101866.05
2018-12-15T23:28:18.635Z,101857.00
2018-12-15T23:30:49.242Z,101853.14
2018-12-15T23:33:19.803Z,101849.53
2018-12-15T23:35:50.352Z,101841.05
2018-12-15T23:38:20.929Z,101840.27
2018-12-15T23:40:51.491Z,101839.52
2018-12-15T23:43:22.865Z,101837.98
2018-12-15T23:45:54.459Z,101838.95
2018-12-15T23:48:25.073Z,101840.16
2018-12-15T23:50:55.687Z,101834.09
2018-12-15T23:53:26.290Z,101837.19
2018-12-15T23:55:56.906Z,101829.98
2018-12-15T23:58:27.474Z,101826.61
